sensor_id;sensor_type;location;lat;lon;timestamp;temperature;humidity
19544;DHT22;9917;51.256;7.152;2023-05-07T00:02:22;15.90;99.90
19544;DHT22;9917;51.256;7.152;2023-05-07T00:07:14;15.50;99.90
19544;DHT22;9917;51.256;7.152;2023-05-07T00:09:40;15.90;99.90
19544;DHT22;9917;51.256;7.152;2023-05-07T00:12:06;15.50;99.90
19544;DHT22;9917;51.256;7.152;2023-05-07T00:14:32;15.40;99.90
19544;DHT22;9917;51.256;7.152;2023-05-07T00:16:58;15.30;99.90
19544;DHT22;9917;51.256;7.152;2023-05-07T00:19:25;15.90;99.90
19544;DHT22;9917;51.256;7.152;2023-05-07T00:24:17;15.50;99.90
19544;DHT22;9917;51.256;7.152;2023-05-07T00:26:42;15.40;99.90
19544;DHT22;9917;51.256;7.152;2023-05-07T00:31:34;15.10;99.90
19544;DHT22;9917;51.256;7.152;2023-05-07T00:36:27;15.30;99.90
19544;DHT22;9917;51.256;7.152;2023-05-07T00:38:54;15.30;99.90
19544;DHT22;9917;51.256;7.152;2023-05-07T00:41:19;15.00;99.90
19544;DHT22;9917;51.256;7.152;2023-05-07T00:46:11;15.60;99.90
19544;DHT22;9917;51.256;7.152;2023-05-07T00:48:38;15.60;99.90
19544;DHT22;9917;51.256;7.152;2023-05-07T00:51:05;15.30;99.90
19544;DHT22;9917;51.256;7.152;2023-05-07T00:53:32;15.40;99.90
19544;DHT22;9917;51.256;7.152;2023-05-07T00:55:59;15.50;99.90
19544;DHT22;9917;51.256;7.152;2023-05-07T01:00:51;15.30;99.90
19544;DHT22;9917;51.256;7.152;2023-05-07T01:05:43;15.40;99.90
19544;DHT22;9917;51.256;7.152;2023-05-07T01:08:11;15.20;99.90
19544;DHT22;9917;51.256;7.152;2023-05-07T01:10:38;15.40;99.90
19544;DHT22;9917;51.256;7.152;2023-05-07T01:13:04;15.00;99.90
19544;DHT22;9917;51.256;7.152;2023-05-07T01:15:30;15.10;99.90
19544;DHT22;9917;51.256;7.152;2023-05-07T01:20:23;15.50;99.90
19544;DHT22;9917;51.256;7.152;2023-05-07T01:22:50;15.70;99.90
19544;DHT22;9917;51.256;7.152;2023-05-07T01:25:16;15.50;99.90
19544;DHT22;9917;51.256;7.152;2023-05-07T01:27:42;15.30;99.90
19544;DHT22;9917;51.256;7.152;2023-05-07T01:30:08;15.50;99.90
19544;DHT22;9917;51.256;7.152;2023-05-07T01:32:39;15.30;99.90
19544;DHT22;9917;51.256;7.152;2023-05-07T01:35:09;15.40;99.90
19544;DHT22;9917;51.256;7.152;2023-05-07T01:37:35;15.30;99.90
19544;DHT22;9917;51.256;7.152;2023-05-07T01:40:03;15.40;99.90
19544;DHT22;9917;51.256;7.152;2023-05-07T01:42:29;15.70;99.90
19544;DHT22;9917;51.256;7.152;2023-05-07T01:47:21;15.20;99.90
19544;DHT22;9917;51.256;7.152;2023-05-07T01:49:47;15.10;99.90
19544;DHT22;9917;51.256;7.152;2023-05-07T01:52:13;15.10;99.90
19544;DHT22;9917;51.256;7.152;2023-05-07T01:57:06;15.10;99.90
19544;DHT22;9917;51.256;7.152;2023-05-07T01:59:32;15.20;99.90
19544;DHT22;9917;51.256;7.152;2023-05-07T02:01:58;15.10;99.90
19544;DHT22;9917;51.256;7.152;2023-05-07T02:11:41;14.90;99.90
19544;DHT22;9917;51.256;7.152;2023-05-07T02:14:08;15.20;99.90
19544;DHT22;9917;51.256;7.152;2023-05-07T02:16:34;14.50;99.90
19544;DHT22;9917;51.256;7.152;2023-05-07T02:21:26;14.90;99.90
19544;DHT22;9917;51.256;7.152;2023-05-07T02:23:52;14.80;99.90
19544;DHT22;9917;51.256;7.152;2023-05-07T02:26:18;15.00;99.90
19544;DHT22;9917;51.256;7.152;2023-05-07T02:28:44;15.10;99.90
19544;DHT22;9917;51.256;7.152;2023-05-07T02:31:11;14.80;99.90
19544;DHT22;9917;51.256;7.152;2023-05-07T02:33:36;14.70;99.90
19544;DHT22;9917;51.256;7.152;2023-05-07T02:36:06;14.90;99.90
19544;DHT22;9917;51.256;7.152;2023-05-07T02:40:58;14.40;99.90
19544;DHT22;9917;51.256;7.152;2023-05-07T02:46:01;14.40;99.90
19544;DHT22;9917;51.256;7.152;2023-05-07T02:48:28;14.20;99.90
19544;DHT22;9917;51.256;7.152;2023-05-07T02:50:53;14.10;99.90
19544;DHT22;9917;51.256;7.152;2023-05-07T02:55:45;14.60;99.90
19544;DHT22;9917;51.256;7.152;2023-05-07T03:00:37;14.50;99.90
19544;DHT22;9917;51.256;7.152;2023-05-07T03:03:03;14.30;99.90
19544;DHT22;9917;51.256;7.152;2023-05-07T03:05:30;14.10;99.90
19544;DHT22;9917;51.256;7.152;2023-05-07T03:07:56;14.10;99.90
19544;DHT22;9917;51.256;7.152;2023-05-07T03:12:47;13.90;99.90
19544;DHT22;9917;51.256;7.152;2023-05-07T03:15:13;13.60;99.90
19544;DHT22;9917;51.256;7.152;2023-05-07T03:20:06;13.60;99.90
19544;DHT22;9917;51.256;7.152;2023-05-07T03:22:36;13.50;99.90
19544;DHT22;9917;51.256;7.152;2023-05-07T03:25:02;13.70;99.90
19544;DHT22;9917;51.256;7.152;2023-05-07T03:27:28;13.70;99.90
19544;DHT22;9917;51.256;7.152;2023-05-07T03:34:50;13.60;99.90
19544;DHT22;9917;51.256;7.152;2023-05-07T03:37:16;13.70;99.90
19544;DHT22;9917;51.256;7.152;2023-05-07T03:39:43;13.90;99.90
19544;DHT22;9917;51.256;7.152;2023-05-07T03:42:08;13.80;99.90
19544;DHT22;9917;51.256;7.152;2023-05-07T03:47:11;13.70;99.90
19544;DHT22;9917;51.256;7.152;2023-05-07T03:54:30;13.60;99.90
19544;DHT22;9917;51.256;7.152;2023-05-07T03:56:57;13.80;99.90
19544;DHT22;9917;51.256;7.152;2023-05-07T03:59:23;14.00;99.90
19544;DHT22;9917;51.256;7.152;2023-05-07T04:01:49;13.70;99.90
19544;DHT22;9917;51.256;7.152;2023-05-07T04:04:14;13.60;99.90
19544;DHT22;9917;51.256;7.152;2023-05-07T04:09:06;13.50;99.90
19544;DHT22;9917;51.256;7.152;2023-05-07T04:11:32;13.30;99.90
19544;DHT22;9917;51.256;7.152;2023-05-07T04:14:00;13.30;99.90
19544;DHT22;9917;51.256;7.152;2023-05-07T04:16:25;13.40;99.90
19544;DHT22;9917;51.256;7.152;2023-05-07T04:18:51;13.30;99.90
19544;DHT22;9917;51.256;7.152;2023-05-07T04:21:17;13.20;99.90
19544;DHT22;9917;51.256;7.152;2023-05-07T04:26:09;13.20;99.90
19544;DHT22;9917;51.256;7.152;2023-05-07T04:28:35;13.50;99.90
19544;DHT22;9917;51.256;7.152;2023-05-07T04:31:03;13.60;99.90
19544;DHT22;9917;51.256;7.152;2023-05-07T04:33:28;13.70;99.90
19544;DHT22;9917;51.256;7.152;2023-05-07T04:38:20;13.80;99.90
19544;DHT22;9917;51.256;7.152;2023-05-07T04:40:46;14.00;99.90
19544;DHT22;9917;51.256;7.152;2023-05-07T04:43:11;14.10;99.90
19544;DHT22;9917;51.256;7.152;2023-05-07T04:45:37;14.10;99.90
19544;DHT22;9917;51.256;7.152;2023-05-07T04:48:06;14.10;99.90
19544;DHT22;9917;51.256;7.152;2023-05-07T04:57:53;14.30;99.90
19544;DHT22;9917;51.256;7.152;2023-05-07T05:00:18;14.30;99.90
19544;DHT22;9917;51.256;7.152;2023-05-07T05:05:12;14.50;99.90
19544;DHT22;9917;51.256;7.152;2023-05-07T05:07:37;14.70;99.90
19544;DHT22;9917;51.256;7.152;2023-05-07T05:10:04;14.50;99.90
19544;DHT22;9917;51.256;7.152;2023-05-07T05:12:30;14.50;99.90
19544;DHT22;9917;51.256;7.152;2023-05-07T05:14:56;14.70;99.90
19544;DHT22;9917;51.256;7.152;2023-05-07T05:17:22;14.70;99.90
19544;DHT22;9917;51.256;7.152;2023-05-07T05:19:53;14.60;99.90
19544;DHT22;9917;51.256;7.152;2023-05-07T05:22:20;14.70;99.90
19544;DHT22;9917;51.256;7.152;2023-05-07T05:24:46;14.90;99.90
19544;DHT22;9917;51.256;7.152;2023-05-07T05:29:38;14.80;99.90
19544;DHT22;9917;51.256;7.152;2023-05-07T05:32:04;15.30;99.90
19544;DHT22;9917;51.256;7.152;2023-05-07T05:34:31;15.60;99.90
19544;DHT22;9917;51.256;7.152;2023-05-07T05:36:56;16.00;99.90
19544;DHT22;9917;51.256;7.152;2023-05-07T05:39:23;15.90;99.90
19544;DHT22;9917;51.256;7.152;2023-05-07T05:41:49;15.90;99.90
19544;DHT22;9917;51.256;7.152;2023-05-07T05:44:15;16.10;99.90
19544;DHT22;9917;51.256;7.152;2023-05-07T05:46:41;16.00;99.90
19544;DHT22;9917;51.256;7.152;2023-05-07T05:51:32;16.40;99.90
19544;DHT22;9917;51.256;7.152;2023-05-07T05:53:58;16.40;99.90
19544;DHT22;9917;51.256;7.152;2023-05-07T05:56:25;16.60;99.90
19544;DHT22;9917;51.256;7.152;2023-05-07T05:58:51;16.60;99.90
19544;DHT22;9917;51.256;7.152;2023-05-07T06:01:18;16.60;99.90
19544;DHT22;9917;51.256;7.152;2023-05-07T06:03:44;16.80;99.90
19544;DHT22;9917;51.256;7.152;2023-05-07T06:06:10;17.30;99.90
19544;DHT22;9917;51.256;7.152;2023-05-07T06:11:02;17.40;99.90
19544;DHT22;9917;51.256;7.152;2023-05-07T06:13:29;17.70;99.90
19544;DHT22;9917;51.256;7.152;2023-05-07T06:15:55;17.40;99.90
19544;DHT22;9917;51.256;7.152;2023-05-07T06:18:20;17.20;99.90
19544;DHT22;9917;51.256;7.152;2023-05-07T06:23:14;17.50;99.90
19544;DHT22;9917;51.256;7.152;2023-05-07T06:25:40;17.70;99.90
19544;DHT22;9917;51.256;7.152;2023-05-07T06:28:06;17.70;99.90
19544;DHT22;9917;51.256;7.152;2023-05-07T06:30:33;17.70;99.90
19544;DHT22;9917;51.256;7.152;2023-05-07T06:33:00;17.80;99.90
19544;DHT22;9917;51.256;7.152;2023-05-07T06:35:26;18.10;99.90
19544;DHT22;9917;51.256;7.152;2023-05-07T06:37:52;18.10;99.90
19544;DHT22;9917;51.256;7.152;2023-05-07T06:40:17;18.30;99.90
19544;DHT22;9917;51.256;7.152;2023-05-07T06:42:43;18.30;99.90
19544;DHT22;9917;51.256;7.152;2023-05-07T06:45:10;18.30;99.90
19544;DHT22;9917;51.256;7.152;2023-05-07T06:47:37;18.30;99.90
19544;DHT22;9917;51.256;7.152;2023-05-07T06:50:03;18.40;99.90
19544;DHT22;9917;51.256;7.152;2023-05-07T06:55:10;18.60;99.90
19544;DHT22;9917;51.256;7.152;2023-05-07T07:02:42;18.90;99.90
19544;DHT22;9917;51.256;7.152;2023-05-07T07:05:08;19.00;99.90
19544;DHT22;9917;51.256;7.152;2023-05-07T07:07:34;19.20;99.90
19544;DHT22;9917;51.256;7.152;2023-05-07T07:10:12;19.30;99.90
19544;DHT22;9917;51.256;7.152;2023-05-07T07:12:37;19.30;99.90
19544;DHT22;9917;51.256;7.152;2023-05-07T07:15:07;19.70;99.90
19544;DHT22;9917;51.256;7.152;2023-05-07T07:17:33;19.80;99.90
19544;DHT22;9917;51.256;7.152;2023-05-07T07:20:00;19.90;99.90
19544;DHT22;9917;51.256;7.152;2023-05-07T07:22:32;20.00;99.90
19544;DHT22;9917;51.256;7.152;2023-05-07T07:24:57;20.20;99.90
19544;DHT22;9917;51.256;7.152;2023-05-07T07:27:23;20.70;99.90
19544;DHT22;9917;51.256;7.152;2023-05-07T07:32:15;20.80;99.90
19544;DHT22;9917;51.256;7.152;2023-05-07T07:34:41;21.10;99.90
19544;DHT22;9917;51.256;7.152;2023-05-07T07:37:08;21.20;99.90
19544;DHT22;9917;51.256;7.152;2023-05-07T07:39:34;21.60;99.90
19544;DHT22;9917;51.256;7.152;2023-05-07T07:42:08;21.50;99.90
19544;DHT22;9917;51.256;7.152;2023-05-07T07:44:34;21.50;99.90
19544;DHT22;9917;51.256;7.152;2023-05-07T07:47:00;21.70;99.90
19544;DHT22;9917;51.256;7.152;2023-05-07T07:49:26;21.90;99.90
19544;DHT22;9917;51.256;7.152;2023-05-07T07:51:51;22.20;99.90
19544;DHT22;9917;51.256;7.152;2023-05-07T07:54:22;22.50;99.90
19544;DHT22;9917;51.256;7.152;2023-05-07T07:56:48;22.80;99.90
19544;DHT22;9917;51.256;7.152;2023-05-07T07:59:16;23.00;99.90
19544;DHT22;9917;51.256;7.152;2023-05-07T08:04:08;23.00;99.90
19544;DHT22;9917;51.256;7.152;2023-05-07T08:06:34;22.80;99.90
19544;DHT22;9917;51.256;7.152;2023-05-07T08:09:00;23.20;99.90
19544;DHT22;9917;51.256;7.152;2023-05-07T08:11:33;23.30;99.90
19544;DHT22;9917;51.256;7.152;2023-05-07T08:16:25;23.10;99.90
19544;DHT22;9917;51.256;7.152;2023-05-07T08:21:20;23.20;99.90
19544;DHT22;9917;51.256;7.152;2023-05-07T08:23:48;23.10;99.90
19544;DHT22;9917;51.256;7.152;2023-05-07T08:26:17;23.30;99.90
19544;DHT22;9917;51.256;7.152;2023-05-07T08:28:54;23.50;99.30
19544;DHT22;9917;51.256;7.152;2023-05-07T08:31:29;24.00;98.60
19544;DHT22;9917;51.256;7.152;2023-05-07T08:36:21;24.40;97.40
19544;DHT22;9917;51.256;7.152;2023-05-07T08:41:13;24.80;95.60
19544;DHT22;9917;51.256;7.152;2023-05-07T08:43:41;24.90;95.30
19544;DHT22;9917;51.256;7.152;2023-05-07T08:46:09;24.90;95.40
19544;DHT22;9917;51.256;7.152;2023-05-07T08:48:35;25.10;94.70
19544;DHT22;9917;51.256;7.152;2023-05-07T08:51:01;25.40;93.80
19544;DHT22;9917;51.256;7.152;2023-05-07T08:53:27;25.90;92.30
19544;DHT22;9917;51.256;7.152;2023-05-07T08:55:53;27.00;90.40
19544;DHT22;9917;51.256;7.152;2023-05-07T08:58:19;28.00;84.30
19544;DHT22;9917;51.256;7.152;2023-05-07T09:00:46;28.50;80.70
19544;DHT22;9917;51.256;7.152;2023-05-07T09:03:13;28.60;77.40
19544;DHT22;9917;51.256;7.152;2023-05-07T09:05:39;28.40;74.70
19544;DHT22;9917;51.256;7.152;2023-05-07T09:17:30;28.50;70.50
19544;DHT22;9917;51.256;7.152;2023-05-07T09:20:02;28.40;70.60
19544;DHT22;9917;51.256;7.152;2023-05-07T09:22:29;28.40;71.40
19544;DHT22;9917;51.256;7.152;2023-05-07T09:24:56;28.70;71.60
19544;DHT22;9917;51.256;7.152;2023-05-07T09:29:01;30.10;67.90
19544;DHT22;9917;51.256;7.152;2023-05-07T09:30:30;30.60;65.20
19544;DHT22;9917;51.256;7.152;2023-05-07T09:32:57;30.10;65.70
19544;DHT22;9917;51.256;7.152;2023-05-07T09:35:25;31.20;62.60
19544;DHT22;9917;51.256;7.152;2023-05-07T09:37:51;31.20;62.80
19544;DHT22;9917;51.256;7.152;2023-05-07T09:40:21;31.50;60.30
19544;DHT22;9917;51.256;7.152;2023-05-07T09:42:48;31.30;59.40
19544;DHT22;9917;51.256;7.152;2023-05-07T09:45:14;31.20;59.10
19544;DHT22;9917;51.256;7.152;2023-05-07T09:47:42;31.50;57.60
19544;DHT22;9917;51.256;7.152;2023-05-07T09:50:09;31.00;58.00
19544;DHT22;9917;51.256;7.152;2023-05-07T09:52:36;30.90;58.50
19544;DHT22;9917;51.256;7.152;2023-05-07T09:55:04;30.50;58.50
19544;DHT22;9917;51.256;7.152;2023-05-07T09:57:31;30.40;58.60
19544;DHT22;9917;51.256;7.152;2023-05-07T09:59:58;30.20;59.00
19544;DHT22;9917;51.256;7.152;2023-05-07T10:02:27;30.10;58.40
19544;DHT22;9917;51.256;7.152;2023-05-07T10:04:56;29.90;59.00
19544;DHT22;9917;51.256;7.152;2023-05-07T10:07:28;30.20;58.60
19544;DHT22;9917;51.256;7.152;2023-05-07T10:09:58;30.80;58.00
19544;DHT22;9917;51.256;7.152;2023-05-07T10:12:24;31.40;56.90
19544;DHT22;9917;51.256;7.152;2023-05-07T10:14:52;31.90;55.50
19544;DHT22;9917;51.256;7.152;2023-05-07T10:17:20;32.20;53.30
19544;DHT22;9917;51.256;7.152;2023-05-07T10:19:48;31.80;52.90
19544;DHT22;9917;51.256;7.152;2023-05-07T10:22:16;29.60;53.60
19544;DHT22;9917;51.256;7.152;2023-05-07T10:24:45;29.60;54.10
19544;DHT22;9917;51.256;7.152;2023-05-07T10:27:16;27.40;57.50
19544;DHT22;9917;51.256;7.152;2023-05-07T10:29:50;26.30;59.70
19544;DHT22;9917;51.256;7.152;2023-05-07T10:32:37;25.60;63.20
19544;DHT22;9917;51.256;7.152;2023-05-07T10:35:14;25.10;63.30
19544;DHT22;9917;51.256;7.152;2023-05-07T10:37:42;25.00;64.60
19544;DHT22;9917;51.256;7.152;2023-05-07T10:40:12;25.50;63.50
19544;DHT22;9917;51.256;7.152;2023-05-07T10:43:01;25.40;64.00
19544;DHT22;9917;51.256;7.152;2023-05-07T10:45:27;25.50;63.80
19544;DHT22;9917;51.256;7.152;2023-05-07T10:48:07;26.10;64.10
19544;DHT22;9917;51.256;7.152;2023-05-07T10:53:20;31.70;55.30
19544;DHT22;9917;51.256;7.152;2023-05-07T10:56:23;34.00;52.30
19544;DHT22;9917;51.256;7.152;2023-05-07T10:58:37;36.60;48.80
19544;DHT22;9917;51.256;7.152;2023-05-07T11:03:29;39.70;40.00
19544;DHT22;9917;51.256;7.152;2023-05-07T11:06:12;38.80;39.50
19544;DHT22;9917;51.256;7.152;2023-05-07T11:08:54;36.80;40.50
19544;DHT22;9917;51.256;7.152;2023-05-07T11:11:44;33.70;44.80
19544;DHT22;9917;51.256;7.152;2023-05-07T11:14:11;33.80;45.10
19544;DHT22;9917;51.256;7.152;2023-05-07T11:16:37;35.40;44.20
19544;DHT22;9917;51.256;7.152;2023-05-07T11:19:05;35.90;42.20
19544;DHT22;9917;51.256;7.152;2023-05-07T11:21:35;35.60;43.80
19544;DHT22;9917;51.256;7.152;2023-05-07T11:24:01;32.30;45.60
19544;DHT22;9917;51.256;7.152;2023-05-07T11:26:29;31.30;48.40
19544;DHT22;9917;51.256;7.152;2023-05-07T11:31:24;28.80;53.70
19544;DHT22;9917;51.256;7.152;2023-05-07T11:33:51;28.20;55.60
19544;DHT22;9917;51.256;7.152;2023-05-07T11:36:18;27.40;57.00
19544;DHT22;9917;51.256;7.152;2023-05-07T11:38:44;27.10;58.40
19544;DHT22;9917;51.256;7.152;2023-05-07T11:46:06;25.70;63.40
19544;DHT22;9917;51.256;7.152;2023-05-07T11:48:33;25.40;65.20
19544;DHT22;9917;51.256;7.152;2023-05-07T11:51:05;25.10;66.00
19544;DHT22;9917;51.256;7.152;2023-05-07T11:53:37;24.80;67.50
19544;DHT22;9917;51.256;7.152;2023-05-07T11:56:06;24.70;68.60
19544;DHT22;9917;51.256;7.152;2023-05-07T11:58:32;24.30;70.20
19544;DHT22;9917;51.256;7.152;2023-05-07T12:05:51;24.00;72.30
19544;DHT22;9917;51.256;7.152;2023-05-07T12:08:19;23.80;72.70
19544;DHT22;9917;51.256;7.152;2023-05-07T12:10:45;23.80;73.30
19544;DHT22;9917;51.256;7.152;2023-05-07T12:13:15;23.60;73.40
19544;DHT22;9917;51.256;7.152;2023-05-07T12:15:40;23.50;74.30
19544;DHT22;9917;51.256;7.152;2023-05-07T12:20:33;23.70;74.40
19544;DHT22;9917;51.256;7.152;2023-05-07T12:23:01;23.70;75.00
19544;DHT22;9917;51.256;7.152;2023-05-07T12:25:29;23.70;74.40
19544;DHT22;9917;51.256;7.152;2023-05-07T12:27:55;23.60;75.30
19544;DHT22;9917;51.256;7.152;2023-05-07T12:30:21;23.70;76.00
19544;DHT22;9917;51.256;7.152;2023-05-07T12:35:12;23.80;78.50
19544;DHT22;9917;51.256;7.152;2023-05-07T12:37:38;23.60;79.40
19544;DHT22;9917;51.256;7.152;2023-05-07T12:40:07;23.70;80.20
19544;DHT22;9917;51.256;7.152;2023-05-07T12:42:33;23.70;81.50
19544;DHT22;9917;51.256;7.152;2023-05-07T12:45:06;23.60;81.80
19544;DHT22;9917;51.256;7.152;2023-05-07T12:47:32;23.70;82.60
19544;DHT22;9917;51.256;7.152;2023-05-07T12:49:59;23.70;82.80
19544;DHT22;9917;51.256;7.152;2023-05-07T12:52:25;23.60;83.30
19544;DHT22;9917;51.256;7.152;2023-05-07T12:54:50;25.20;84.10
19544;DHT22;9917;51.256;7.152;2023-05-07T12:57:19;24.00;83.60
19544;DHT22;9917;51.256;7.152;2023-05-07T12:59:45;24.10;84.30
19544;DHT22;9917;51.256;7.152;2023-05-07T13:02:11;24.20;84.70
19544;DHT22;9917;51.256;7.152;2023-05-07T13:04:36;24.00;84.40
19544;DHT22;9917;51.256;7.152;2023-05-07T13:07:02;23.90;84.70
19544;DHT22;9917;51.256;7.152;2023-05-07T13:09:28;24.10;85.50
19544;DHT22;9917;51.256;7.152;2023-05-07T13:11:54;23.90;86.00
19544;DHT22;9917;51.256;7.152;2023-05-07T13:14:21;23.80;85.90
19544;DHT22;9917;51.256;7.152;2023-05-07T13:16:47;23.60;86.10
19544;DHT22;9917;51.256;7.152;2023-05-07T13:19:13;23.30;85.90
19544;DHT22;9917;51.256;7.152;2023-05-07T13:24:05;23.00;86.50
19544;DHT22;9917;51.256;7.152;2023-05-07T13:28:57;22.20;85.80
19544;DHT22;9917;51.256;7.152;2023-05-07T13:31:24;22.00;86.30
19544;DHT22;9917;51.256;7.152;2023-05-07T13:36:16;22.10;85.70
19544;DHT22;9917;51.256;7.152;2023-05-07T13:43:34;22.30;84.90
19544;DHT22;9917;51.256;7.152;2023-05-07T13:46:00;22.40;83.50
19544;DHT22;9917;51.256;7.152;2023-05-07T13:48:27;22.70;82.90
19544;DHT22;9917;51.256;7.152;2023-05-07T13:50:53;22.50;81.90
19544;DHT22;9917;51.256;7.152;2023-05-07T13:55:44;22.20;83.60
19544;DHT22;9917;51.256;7.152;2023-05-07T13:58:10;21.90;85.40
19544;DHT22;9917;51.256;7.152;2023-05-07T14:03:03;21.80;88.40
19544;DHT22;9917;51.256;7.152;2023-05-07T14:05:31;21.60;89.90
19544;DHT22;9917;51.256;7.152;2023-05-07T14:07:57;21.50;90.50
19544;DHT22;9917;51.256;7.152;2023-05-07T14:10:55;21.40;91.10
19544;DHT22;9917;51.256;7.152;2023-05-07T14:15:47;21.40;92.30
19544;DHT22;9917;51.256;7.152;2023-05-07T14:20:40;21.20;93.90
19544;DHT22;9917;51.256;7.152;2023-05-07T14:23:10;21.00;94.70
19544;DHT22;9917;51.256;7.152;2023-05-07T14:25:36;21.10;95.70
19544;DHT22;9917;51.256;7.152;2023-05-07T14:32:53;20.50;99.90
19544;DHT22;9917;51.256;7.152;2023-05-07T14:37:47;20.30;99.90
19544;DHT22;9917;51.256;7.152;2023-05-07T14:42:39;20.40;99.90
19544;DHT22;9917;51.256;7.152;2023-05-07T14:45:05;20.30;99.90
19544;DHT22;9917;51.256;7.152;2023-05-07T14:49:59;20.10;99.90
19544;DHT22;9917;51.256;7.152;2023-05-07T14:52:25;20.00;99.90
19544;DHT22;9917;51.256;7.152;2023-05-07T14:54:52;20.10;99.90
19544;DHT22;9917;51.256;7.152;2023-05-07T14:57:18;20.10;99.90
19544;DHT22;9917;51.256;7.152;2023-05-07T14:59:44;19.90;99.90
19544;DHT22;9917;51.256;7.152;2023-05-07T15:02:10;19.90;99.90
19544;DHT22;9917;51.256;7.152;2023-05-07T15:04:36;19.90;99.90
19544;DHT22;9917;51.256;7.152;2023-05-07T15:09:29;19.60;99.90
19544;DHT22;9917;51.256;7.152;2023-05-07T15:11:56;19.60;99.90
19544;DHT22;9917;51.256;7.152;2023-05-07T15:19:14;19.80;99.90
19544;DHT22;9917;51.256;7.152;2023-05-07T15:21:40;19.80;99.90
19544;DHT22;9917;51.256;7.152;2023-05-07T15:24:06;19.80;99.90
19544;DHT22;9917;51.256;7.152;2023-05-07T15:26:32;19.60;99.90
19544;DHT22;9917;51.256;7.152;2023-05-07T15:28:59;19.40;99.90
19544;DHT22;9917;51.256;7.152;2023-05-07T15:31:25;23.60;99.90
19544;DHT22;9917;51.256;7.152;2023-05-07T15:36:16;19.30;99.90
19544;DHT22;9917;51.256;7.152;2023-05-07T15:43:44;18.90;99.90
19544;DHT22;9917;51.256;7.152;2023-05-07T15:46:12;18.80;99.90
19544;DHT22;9917;51.256;7.152;2023-05-07T15:48:37;18.90;99.90
19544;DHT22;9917;51.256;7.152;2023-05-07T15:51:03;19.00;99.90
19544;DHT22;9917;51.256;7.152;2023-05-07T15:53:29;19.00;99.90
19544;DHT22;9917;51.256;7.152;2023-05-07T15:58:21;18.90;99.90
19544;DHT22;9917;51.256;7.152;2023-05-07T16:03:14;18.80;99.90
19544;DHT22;9917;51.256;7.152;2023-05-07T16:08:05;18.80;99.90
19544;DHT22;9917;51.256;7.152;2023-05-07T16:10:31;18.90;99.90
19544;DHT22;9917;51.256;7.152;2023-05-07T16:12:57;19.10;99.90
19544;DHT22;9917;51.256;7.152;2023-05-07T16:20:16;19.50;99.90
19544;DHT22;9917;51.256;7.152;2023-05-07T16:22:42;19.30;99.90
19544;DHT22;9917;51.256;7.152;2023-05-07T16:25:09;19.60;99.90
19544;DHT22;9917;51.256;7.152;2023-05-07T16:32:27;19.90;99.90
19544;DHT22;9917;51.256;7.152;2023-05-07T16:34:53;19.80;99.90
19544;DHT22;9917;51.256;7.152;2023-05-07T16:37:20;19.90;99.90
19544;DHT22;9917;51.256;7.152;2023-05-07T16:39:45;20.00;99.90
19544;DHT22;9917;51.256;7.152;2023-05-07T16:42:11;19.90;99.90
19544;DHT22;9917;51.256;7.152;2023-05-07T16:44:37;20.10;99.90
19544;DHT22;9917;51.256;7.152;2023-05-07T16:47:02;20.10;99.90
19544;DHT22;9917;51.256;7.152;2023-05-07T16:49:28;20.00;99.90
19544;DHT22;9917;51.256;7.152;2023-05-07T16:51:54;20.10;99.90
19544;DHT22;9917;51.256;7.152;2023-05-07T16:54:21;19.90;99.90
19544;DHT22;9917;51.256;7.152;2023-05-07T16:56:47;20.00;99.90
19544;DHT22;9917;51.256;7.152;2023-05-07T16:59:12;19.80;99.90
19544;DHT22;9917;51.256;7.152;2023-05-07T17:01:38;19.90;99.90
19544;DHT22;9917;51.256;7.152;2023-05-07T17:04:04;20.00;99.90
19544;DHT22;9917;51.256;7.152;2023-05-07T17:06:30;20.00;99.90
19544;DHT22;9917;51.256;7.152;2023-05-07T17:08:55;19.90;99.90
19544;DHT22;9917;51.256;7.152;2023-05-07T17:11:28;19.90;99.90
19544;DHT22;9917;51.256;7.152;2023-05-07T17:13:54;19.80;99.90
19544;DHT22;9917;51.256;7.152;2023-05-07T17:16:20;19.80;99.90
19544;DHT22;9917;51.256;7.152;2023-05-07T17:21:12;19.70;99.90
19544;DHT22;9917;51.256;7.152;2023-05-07T17:23:37;19.70;99.90
19544;DHT22;9917;51.256;7.152;2023-05-07T17:26:03;19.50;99.90
19544;DHT22;9917;51.256;7.152;2023-05-07T17:28:36;19.50;99.90
19544;DHT22;9917;51.256;7.152;2023-05-07T17:31:02;19.70;99.90
19544;DHT22;9917;51.256;7.152;2023-05-07T17:33:28;19.60;99.90
19544;DHT22;9917;51.256;7.152;2023-05-07T17:35:54;19.60;99.90
19544;DHT22;9917;51.256;7.152;2023-05-07T17:38:19;19.30;99.90
19544;DHT22;9917;51.256;7.152;2023-05-07T17:40:45;19.40;99.90
19544;DHT22;9917;51.256;7.152;2023-05-07T17:45:38;19.30;99.90
19544;DHT22;9917;51.256;7.152;2023-05-07T17:48:04;19.10;99.90
19544;DHT22;9917;51.256;7.152;2023-05-07T17:50:30;19.10;99.90
19544;DHT22;9917;51.256;7.152;2023-05-07T17:55:22;19.00;99.90
19544;DHT22;9917;51.256;7.152;2023-05-07T18:00:14;18.90;99.90
19544;DHT22;9917;51.256;7.152;2023-05-07T18:02:42;18.80;99.90
19544;DHT22;9917;51.256;7.152;2023-05-07T18:05:08;18.60;99.90
19544;DHT22;9917;51.256;7.152;2023-05-07T18:10:00;18.50;99.90
19544;DHT22;9917;51.256;7.152;2023-05-07T18:12:27;18.40;99.90
19544;DHT22;9917;51.256;7.152;2023-05-07T18:19:46;18.30;99.90
19544;DHT22;9917;51.256;7.152;2023-05-07T18:22:11;18.20;99.90
19544;DHT22;9917;51.256;7.152;2023-05-07T18:24:42;18.20;99.90
19544;DHT22;9917;51.256;7.152;2023-05-07T18:27:07;18.10;99.90
19544;DHT22;9917;51.256;7.152;2023-05-07T18:29:33;18.30;99.90
19544;DHT22;9917;51.256;7.152;2023-05-07T18:31:59;18.10;99.90
19544;DHT22;9917;51.256;7.152;2023-05-07T18:36:52;18.00;99.90
19544;DHT22;9917;51.256;7.152;2023-05-07T18:39:17;17.90;99.90
19544;DHT22;9917;51.256;7.152;2023-05-07T18:53:54;17.70;99.90
19544;DHT22;9917;51.256;7.152;2023-05-07T19:01:12;17.80;99.90
19544;DHT22;9917;51.256;7.152;2023-05-07T19:06:05;17.60;99.90
19544;DHT22;9917;51.256;7.152;2023-05-07T19:10:58;17.60;99.90
19544;DHT22;9917;51.256;7.152;2023-05-07T19:18:16;17.80;99.90
19544;DHT22;9917;51.256;7.152;2023-05-07T19:23:17;17.70;99.90
19544;DHT22;9917;51.256;7.152;2023-05-07T19:28:11;17.50;99.90
19544;DHT22;9917;51.256;7.152;2023-05-07T19:30:37;17.70;99.90
19544;DHT22;9917;51.256;7.152;2023-05-07T19:33:09;17.50;99.90
19544;DHT22;9917;51.256;7.152;2023-05-07T19:35:50;17.50;99.90
19544;DHT22;9917;51.256;7.152;2023-05-07T19:38:16;17.60;99.90
19544;DHT22;9917;51.256;7.152;2023-05-07T19:40:45;17.50;99.90
19544;DHT22;9917;51.256;7.152;2023-05-07T19:43:12;15.40;99.90
19544;DHT22;9917;51.256;7.152;2023-05-07T19:48:04;17.70;99.90
19544;DHT22;9917;51.256;7.152;2023-05-07T19:50:30;17.30;99.90
19544;DHT22;9917;51.256;7.152;2023-05-07T19:52:56;17.30;99.90
19544;DHT22;9917;51.256;7.152;2023-05-07T20:00:18;17.40;99.90
19544;DHT22;9917;51.256;7.152;2023-05-07T20:02:43;17.20;99.90
19544;DHT22;9917;51.256;7.152;2023-05-07T20:05:09;17.20;99.90
19544;DHT22;9917;51.256;7.152;2023-05-07T20:07:35;17.50;99.90
19544;DHT22;9917;51.256;7.152;2023-05-07T20:10:02;17.20;99.90
19544;DHT22;9917;51.256;7.152;2023-05-07T20:12:28;17.50;99.90